createdAt,value
2023-05-02T00:00:45.114Z,20.5402
2023-05-02T00:01:45.874Z,20.5146
2023-05-02T00:02:47.503Z,20.4907
2023-05-02T00:03:49.275Z,20.4693
2023-05-02T00:04:50.797Z,20.4977
2023-05-02T00:05:52.425Z,20.5503
2023-05-02T00:06:54.182Z,20.6011
2023-05-02T00:07:55.699Z,20.6296
2023-05-02T00:08:57.305Z,20.6263
2023-05-02T00:09:59.220Z,20.6208
2023-05-02T00:11:00.987Z,20.6055
2023-05-02T00:12:02.295Z,20.5801
2023-05-02T00:13:03.939Z,20.5526
2023-05-02T00:14:05.501Z,20.5181
2023-05-02T00:15:07.205Z,20.4915
2023-05-02T00:16:08.871Z,20.4855
2023-05-02T00:17:10.593Z,20.5122
2023-05-02T00:18:12.231Z,20.5941
2023-05-02T00:19:13.782Z,20.6511
2023-05-02T00:20:15.401Z,20.6827
2023-05-02T00:21:17.181Z,20.6768
2023-05-02T00:22:18.759Z,20.6504
2023-05-02T00:23:20.444Z,20.6181
2023-05-02T00:24:21.991Z,20.5881
2023-05-02T00:25:23.668Z,20.5731
2023-05-02T00:26:25.364Z,20.5426
2023-05-02T00:27:26.978Z,20.5171
2023-05-02T00:28:28.557Z,20.5272
2023-05-02T00:29:30.230Z,20.5708
2023-05-02T00:30:31.867Z,20.6060
2023-05-02T00:31:34.103Z,20.6381
2023-05-02T00:32:35.220Z,20.6374
2023-05-02T00:33:36.842Z,20.6140
2023-05-02T00:34:38.419Z,20.5975
2023-05-02T00:35:40.114Z,20.5866
2023-05-02T00:36:41.780Z,20.5602
2023-05-02T00:37:43.548Z,20.5326
2023-05-02T00:38:45.016Z,20.4972
2023-05-02T00:39:46.693Z,20.4840
2023-05-02T00:40:48.346Z,20.4968
2023-05-02T00:41:50.037Z,20.5359
2023-05-02T00:42:51.652Z,20.5783
2023-05-02T00:43:53.252Z,20.6174
2023-05-02T00:44:54.851Z,20.6373
2023-05-02T00:45:56.608Z,20.6497
2023-05-02T00:46:58.553Z,20.6473
2023-05-02T00:48:00.560Z,20.6385
2023-05-02T00:49:01.469Z,20.6104
2023-05-02T00:50:03.369Z,20.5788
2023-05-02T00:51:04.751Z,20.5481
2023-05-02T00:52:06.483Z,20.5271
2023-05-02T00:53:08.093Z,20.5294
2023-05-02T00:54:09.792Z,20.5756
2023-05-02T00:55:11.342Z,20.6038
2023-05-02T00:56:13.017Z,20.6190
2023-05-02T00:57:14.644Z,20.6158
2023-05-02T00:58:16.571Z,20.5993
2023-05-02T00:59:17.904Z,20.5792
2023-05-02T01:00:19.591Z,20.5700
2023-05-02T01:01:21.271Z,20.5415
2023-05-02T01:02:24.637Z,20.5023
2023-05-02T01:03:24.724Z,20.4705
2023-05-02T01:04:26.172Z,20.5055
2023-05-02T01:05:27.775Z,20.5651
2023-05-02T01:06:29.505Z,20.6065
2023-05-02T01:07:31.130Z,20.6377
2023-05-02T01:08:32.786Z,20.6599
2023-05-02T01:09:34.401Z,20.6589
2023-05-02T01:10:36.082Z,20.6528
2023-05-02T01:11:37.721Z,20.6294
2023-05-02T01:12:39.352Z,20.5876
2023-05-02T01:13:41.030Z,20.5567
2023-05-02T01:14:42.620Z,20.5203
2023-05-02T01:15:44.300Z,20.4857
2023-05-02T01:16:45.975Z,20.4900
2023-05-02T01:17:47.678Z,20.5432
2023-05-02T01:18:49.258Z,20.5909
2023-05-02T01:19:50.850Z,20.6280
2023-05-02T01:20:52.565Z,20.6459
2023-05-02T01:21:54.128Z,20.6543
2023-05-02T01:22:55.833Z,20.6404
2023-05-02T01:23:57.427Z,20.6191
2023-05-02T01:24:59.079Z,20.5873
2023-05-02T01:26:00.721Z,20.5561
2023-05-02T01:27:02.351Z,20.5119
2023-05-02T01:28:04.012Z,20.4891
2023-05-02T01:29:05.717Z,20.4869
2023-05-02T01:30:07.281Z,20.5299
2023-05-02T01:31:08.965Z,20.5849
2023-05-02T01:32:10.579Z,20.6386
2023-05-02T01:33:12.318Z,20.6675
2023-05-02T01:34:13.904Z,20.6638
2023-05-02T01:35:15.550Z,20.6583
2023-05-02T01:36:17.139Z,20.6478
2023-05-02T01:37:18.847Z,20.6048
2023-05-02T01:38:20.496Z,20.5618
2023-05-02T01:39:22.547Z,20.5300
2023-05-02T01:40:23.791Z,20.5135
2023-05-02T01:41:25.459Z,20.5391
2023-05-02T01:42:27.077Z,20.5857
2023-05-02T01:43:28.735Z,20.6291
2023-05-02T01:44:30.356Z,20.6817
2023-05-02T01:45:32.049Z,20.7048
2023-05-02T01:46:33.663Z,20.7006
2023-05-02T01:47:35.333Z,20.6976
2023-05-02T01:48:37.066Z,20.6862
2023-05-02T01:49:38.721Z,20.6598
2023-05-02T01:50:40.221Z,20.6257
2023-05-02T01:51:41.907Z,20.5866
2023-05-02T01:52:43.576Z,20.5558
2023-05-02T01:53:45.571Z,20.5166
2023-05-02T01:54:46.820Z,20.5163
2023-05-02T01:55:48.468Z,20.5605
2023-05-02T01:56:50.126Z,20.6220
2023-05-02T01:57:51.757Z,20.6812
2023-05-02T01:58:53.444Z,20.7234
2023-05-02T01:59:55.083Z,20.7362
2023-05-02T02:00:56.680Z,20.7298
2023-05-02T02:01:58.366Z,20.7291
2023-05-02T02:03:00.040Z,20.7115
2023-05-02T02:04:02.143Z,20.6816
2023-05-02T02:05:03.300Z,20.6353
2023-05-02T02:06:04.978Z,20.5984
2023-05-02T02:07:06.542Z,20.5749
2023-05-02T02:08:08.215Z,20.5655
2023-05-02T02:09:09.868Z,20.5914
2023-05-02T02:10:11.518Z,20.6639
2023-05-02T02:11:13.142Z,20.7116
2023-05-02T02:12:14.771Z,20.7640
2023-05-02T02:13:16.468Z,20.7913
2023-05-02T02:14:18.070Z,20.7767
2023-05-02T02:15:19.794Z,20.7528
2023-05-02T02:16:21.378Z,20.7325
2023-05-02T02:17:23.019Z,20.7035
2023-05-02T02:18:24.614Z,20.6642
2023-05-02T02:19:26.353Z,20.6219
2023-05-02T02:20:27.897Z,20.5918
2023-05-02T02:21:29.580Z,20.5963
2023-05-02T02:22:31.181Z,20.6436
2023-05-02T02:23:33.013Z,20.6873
2023-05-02T02:24:34.592Z,20.7360
2023-05-02T02:25:36.259Z,20.7751
2023-05-02T02:26:37.820Z,20.7921
2023-05-02T02:27:39.503Z,20.7926
2023-05-02T02:28:41.103Z,20.7566
2023-05-02T02:29:42.848Z,20.7135
2023-05-02T02:30:44.468Z,20.7014
2023-05-02T02:31:46.108Z,20.6695
2023-05-02T02:32:47.760Z,20.6168
2023-05-02T02:33:49.372Z,20.5754
2023-05-02T02:34:51.030Z,20.5730
2023-05-02T02:35:52.696Z,20.6166
2023-05-02T02:36:54.295Z,20.6715
2023-05-02T02:37:55.959Z,20.7392
2023-05-02T02:38:57.617Z,20.7742
2023-05-02T02:39:59.844Z,20.7836
2023-05-02T02:41:00.841Z,20.7682
2023-05-02T02:42:02.519Z,20.7473
2023-05-02T02:43:04.104Z,20.7240
2023-05-02T02:44:06.560Z,20.6910
2023-05-02T02:45:07.425Z,20.6563
2023-05-02T02:46:09.156Z,20.6022
2023-05-02T02:47:10.706Z,20.5668
2023-05-02T02:48:12.430Z,20.5979
2023-05-02T02:49:13.994Z,20.6616
2023-05-02T02:50:16.138Z,20.7166
2023-05-02T02:51:17.289Z,20.7662
2023-05-02T02:52:19.468Z,20.7804
2023-05-02T02:53:20.524Z,20.7744
2023-05-02T02:54:27.042Z,20.7494
2023-05-02T02:55:23.896Z,20.7149
2023-05-02T02:56:25.506Z,20.6822
2023-05-02T02:57:27.092Z,20.6446
2023-05-02T02:58:28.792Z,20.6175
2023-05-02T02:59:30.384Z,20.5922
2023-05-02T03:00:32.147Z,20.5774
2023-05-02T03:01:33.797Z,20.5903
2023-05-02T03:02:35.397Z,20.6279
2023-05-02T03:03:37.041Z,20.6742
2023-05-02T03:04:38.658Z,20.6995
2023-05-02T03:05:40.366Z,20.7276
2023-05-02T03:06:42.032Z,20.7272
2023-05-02T03:07:43.588Z,20.7144
2023-05-02T03:08:45.223Z,20.6771
2023-05-02T03:09:46.870Z,20.6439
2023-05-02T03:10:48.576Z,20.6174
2023-05-02T03:11:50.194Z,20.5701
2023-05-02T03:12:51.799Z,20.5350
2023-05-02T03:13:53.467Z,20.5283
2023-05-02T03:14:55.149Z,20.5680
2023-05-02T03:15:56.817Z,20.6324
2023-05-02T03:16:58.437Z,20.7033
2023-05-02T03:18:00.034Z,20.7434
2023-05-02T03:19:01.696Z,20.7443
2023-05-02T03:20:03.304Z,20.7388
2023-05-02T03:21:04.996Z,20.7309
2023-05-02T03:22:07.085Z,20.7048
2023-05-02T03:23:08.264Z,20.6663
2023-05-02T03:24:09.898Z,20.6195
2023-05-02T03:25:11.569Z,20.5735
2023-05-02T03:26:13.163Z,20.5396
2023-05-02T03:27:14.930Z,20.5466
2023-05-02T03:28:16.540Z,20.6016
2023-05-02T03:29:18.198Z,20.6698
2023-05-02T03:30:19.770Z,20.7186
2023-05-02T03:31:21.881Z,20.7469
2023-05-02T03:32:23.191Z,20.7331
2023-05-02T03:33:24.781Z,20.7112
2023-05-02T03:34:26.343Z,20.6969
2023-05-02T03:35:28.041Z,20.6736
2023-05-02T03:36:29.670Z,20.6391
2023-05-02T03:37:31.404Z,20.6077
2023-05-02T03:38:33.041Z,20.5628
2023-05-02T03:39:34.621Z,20.5394
2023-05-02T03:40:36.203Z,20.5542
2023-05-02T03:41:37.914Z,20.6140
2023-05-02T03:42:39.624Z,20.6955
2023-05-02T03:43:41.277Z,20.7386
2023-05-02T03:44:43.581Z,20.7679
2023-05-02T03:45:44.500Z,20.7860
2023-05-02T03:46:46.169Z,20.7849
2023-05-02T03:47:47.812Z,20.7561
2023-05-02T03:48:49.435Z,20.7241
2023-05-02T03:49:51.098Z,20.6919
2023-05-02T03:50:52.702Z,20.6542
2023-05-02T03:51:54.404Z,20.6184
2023-05-02T03:52:55.959Z,20.6175
2023-05-02T03:53:57.725Z,20.7429
2023-05-02T03:54:59.290Z,20.9526
2023-05-02T03:56:00.937Z,21.1750
2023-05-02T03:57:02.538Z,21.3802
2023-05-02T03:58:04.251Z,21.5786
2023-05-02T03:59:05.914Z,21.7306
2023-05-02T04:00:07.540Z,21.8559
2023-05-02T04:01:09.162Z,21.9653
2023-05-02T04:02:10.869Z,22.0632
2023-05-02T04:03:13.092Z,22.1571
2023-05-02T04:04:14.176Z,22.2449
2023-05-02T04:05:15.729Z,22.3330
2023-05-02T04:06:17.452Z,22.4370
2023-05-02T04:07:19.029Z,22.6034
2023-05-02T04:08:20.726Z,22.8397
2023-05-02T04:09:22.361Z,23.0867
2023-05-02T04:10:24.017Z,23.2824
2023-05-02T04:11:25.613Z,23.4373
2023-05-02T04:12:27.326Z,23.4877
2023-05-02T04:13:28.911Z,23.4830
2023-05-02T04:14:30.614Z,23.4593
2023-05-02T04:15:33.098Z,23.4300
2023-05-02T04:16:34.729Z,23.4230
2023-05-02T04:17:35.582Z,23.4502
2023-05-02T04:18:37.142Z,23.4454
2023-05-02T04:19:38.891Z,23.4663
2023-05-02T04:20:40.421Z,23.6186
2023-05-02T04:21:42.066Z,23.7583
2023-05-02T04:22:43.650Z,23.9505
2023-05-02T04:23:46.050Z,24.2184
2023-05-02T04:24:47.007Z,24.4558
2023-05-02T04:25:48.616Z,24.6469
2023-05-02T04:26:50.288Z,24.8396
2023-05-02T04:27:51.911Z,24.9674
2023-05-02T04:28:53.571Z,25.0310
2023-05-02T04:29:55.250Z,25.0491
2023-05-02T04:30:56.932Z,25.0326
2023-05-02T04:31:58.503Z,25.0082
2023-05-02T04:33:00.196Z,25.0482
2023-05-02T04:34:01.810Z,25.1328
2023-05-02T04:35:04.138Z,25.2493
2023-05-02T04:36:05.120Z,25.3985
2023-05-02T04:37:06.726Z,25.4864
2023-05-02T04:38:08.392Z,25.5227
2023-05-02T04:39:10.043Z,25.5367
2023-05-02T04:40:11.677Z,25.5307
2023-05-02T04:41:13.357Z,25.5239
2023-05-02T04:42:14.993Z,25.4774
2023-05-02T04:43:16.625Z,25.4383
2023-05-02T04:44:18.296Z,25.4300
2023-05-02T04:45:19.984Z,25.4266
2023-05-02T04:46:21.623Z,25.4398
2023-05-02T04:47:23.240Z,25.4407
2023-05-02T04:48:24.840Z,25.4631
2023-05-02T04:49:26.598Z,25.4842
2023-05-02T04:50:28.323Z,25.4899
2023-05-02T04:51:29.848Z,25.5080
2023-05-02T04:52:31.487Z,25.5255
2023-05-02T04:53:33.072Z,25.5418
2023-05-02T04:54:34.781Z,25.5777
2023-05-02T04:55:36.561Z,25.6079
2023-05-02T04:56:38.576Z,25.6488
2023-05-02T04:57:39.671Z,25.7024
2023-05-02T04:58:41.330Z,25.7432
2023-05-02T04:59:42.987Z,25.7897
2023-05-02T05:00:44.652Z,25.8082
2023-05-02T05:01:46.433Z,25.7985
2023-05-02T05:02:47.975Z,25.7955
2023-05-02T05:03:49.688Z,25.8077
2023-05-02T05:04:51.229Z,25.8259
2023-05-02T05:05:53.089Z,25.8443
2023-05-02T05:06:54.664Z,25.8506
2023-05-02T05:07:56.167Z,25.8487
2023-05-02T05:08:57.790Z,25.8621
2023-05-02T05:09:59.537Z,25.9125
2023-05-02T05:11:01.058Z,25.9700
2023-05-02T05:12:02.963Z,26.0386
2023-05-02T05:13:04.492Z,26.0621
2023-05-02T05:14:06.187Z,26.0964
2023-05-02T05:15:07.850Z,26.1336
2023-05-02T05:16:09.496Z,26.1768
2023-05-02T05:17:11.114Z,26.2061
2023-05-02T05:18:12.838Z,26.2256
2023-05-02T05:19:14.408Z,26.2508
2023-05-02T05:20:16.034Z,26.2875
2023-05-02T05:21:17.699Z,26.3463
2023-05-02T05:22:20.339Z,26.3895
2023-05-02T05:23:21.881Z,26.4520
2023-05-02T05:24:22.789Z,26.5108
2023-05-02T05:25:24.212Z,26.5682
2023-05-02T05:26:25.954Z,26.6033
2023-05-02T05:27:27.554Z,26.6477
2023-05-02T05:28:29.219Z,26.7106
2023-05-02T05:29:30.857Z,26.7577
2023-05-02T05:30:32.496Z,26.7823
2023-05-02T05:31:34.227Z,26.8149
2023-05-02T05:32:35.834Z,26.8540
2023-05-02T05:33:37.465Z,26.8930
2023-05-02T05:34:39.110Z,26.9227
2023-05-02T05:35:40.703Z,26.9592
2023-05-02T05:36:42.361Z,26.9910
2023-05-02T05:37:44.070Z,27.0206
2023-05-02T05:38:45.677Z,27.0330
2023-05-02T05:39:47.302Z,27.0465
2023-05-02T05:40:48.911Z,27.0613
2023-05-02T05:41:50.586Z,27.0813
2023-05-02T05:42:52.269Z,27.0967
2023-05-02T05:43:53.941Z,27.1188
2023-05-02T05:44:55.486Z,27.1426
2023-05-02T05:45:57.220Z,27.1710
2023-05-02T05:46:58.926Z,27.2070
2023-05-02T05:48:00.533Z,27.2344
2023-05-02T05:49:02.188Z,27.2479
2023-05-02T05:50:03.962Z,27.2669
2023-05-02T05:51:05.436Z,27.2859
2023-05-02T05:52:07.066Z,27.3100
2023-05-02T05:53:08.626Z,27.3207
2023-05-02T05:54:10.334Z,27.3415
2023-05-02T05:55:11.965Z,27.3562
2023-05-02T05:56:13.938Z,27.3706
2023-05-02T05:57:15.778Z,27.3887
2023-05-02T05:58:16.928Z,27.4147
2023-05-02T05:59:18.466Z,27.4350
2023-05-02T06:00:20.172Z,27.4425
2023-05-02T06:01:21.769Z,27.4549
2023-05-02T06:02:23.612Z,27.4727
2023-05-02T06:03:25.168Z,27.4937
2023-05-02T06:04:26.829Z,27.5141
2023-05-02T06:05:28.306Z,27.5388
2023-05-02T06:06:30.034Z,27.5639
2023-05-02T06:07:31.602Z,27.5860
2023-05-02T06:08:33.303Z,27.6117
2023-05-02T06:09:34.927Z,27.6402
2023-05-02T06:10:36.583Z,27.6637
2023-05-02T06:11:38.249Z,27.6745
2023-05-02T06:12:39.877Z,27.6800
2023-05-02T06:13:41.615Z,27.6924
